createdAt,value
2023-03-26T00:07:31.519Z,60.19
2023-03-26T00:17:37.009Z,59.94
2023-03-26T00:27:40.607Z,60.73
2023-03-26T00:37:43.464Z,61.67
2023-03-26T00:47:46.365Z,60.24
2023-03-26T00:57:48.570Z,60.70
2023-03-26T01:07:51.566Z,59.31
2023-03-26T01:17:58.061Z,61.41
2023-03-26T01:28:01.042Z,60.13
2023-03-26T01:38:24.630Z,61.30
2023-03-26T01:48:39.824Z,59.14
2023-03-26T01:58:54.270Z,59.49
2023-03-26T02:09:01.142Z,59.70
2023-03-26T02:19:05.290Z,57.76
2023-03-26T02:29:08.060Z,57.01
2023-03-26T02:39:14.264Z,58.80
2023-03-26T02:49:20.177Z,57.49
2023-03-26T02:59:22.986Z,58.06
2023-03-26T03:09:41.567Z,60.70
2023-03-26T03:20:05.392Z,56.56
2023-03-26T03:30:10.936Z,56.82
2023-03-26T03:40:15.960Z,56.88
2023-03-26T03:50:20.084Z,55.98
2023-03-26T04:00:48.856Z,57.92
2023-03-26T04:11:20.009Z,59.10
2023-03-26T04:21:42.850Z,60.06
2023-03-26T04:31:47.318Z,58.25
2023-03-26T04:41:51.888Z,58.27
2023-03-26T04:51:55.960Z,57.83
2023-03-26T05:02:21.419Z,57.55
2023-03-26T05:12:27.755Z,57.02
2023-03-26T05:22:38.882Z,57.84
2023-03-26T05:32:57.105Z,57.13
2023-03-26T05:43:04.698Z,56.57
2023-03-26T05:53:23.718Z,55.86
2023-03-26T06:03:58.118Z,55.33
2023-03-26T06:14:04.175Z,57.53
2023-03-26T06:24:07.886Z,56.43
2023-03-26T06:34:19.968Z,56.90
2023-03-26T06:44:22.613Z,55.78
2023-03-26T06:54:55.439Z,55.90
2023-03-26T07:05:21.242Z,56.67
2023-03-26T07:15:43.864Z,56.77
2023-03-26T07:25:48.284Z,57.95
2023-03-26T07:35:58.205Z,60.43
2023-03-26T07:46:32.240Z,62.03
2023-03-26T07:56:59.352Z,61.75
2023-03-26T08:07:50.864Z,62.07
2023-03-26T08:18:27.294Z,62.95
2023-03-26T08:28:52.998Z,64.50
2023-03-26T08:38:55.327Z,63.61
2023-03-26T08:49:32.715Z,65.75
2023-03-26T08:59:52.035Z,63.81
2023-03-26T09:10:22.479Z,65.16
2023-03-26T09:21:01.957Z,65.22
2023-03-26T09:31:29.602Z,64.41
2023-03-26T09:41:38.477Z,61.32
2023-03-26T09:52:16.526Z,62.33
2023-03-26T10:02:47.205Z,60.01
2023-03-26T10:13:08.132Z,59.21
2023-03-26T10:23:25.900Z,61.04
2023-03-26T10:33:39.622Z,61.80
2023-03-26T10:44:22.118Z,61.49
2023-03-26T10:54:49.585Z,60.29
2023-03-26T11:05:10.521Z,58.04
2023-03-26T11:15:27.902Z,60.44
2023-03-26T11:26:08.062Z,62.06
2023-03-26T11:36:14.852Z,63.83
2023-03-26T11:46:19.195Z,64.29
2023-03-26T11:56:31.350Z,61.51
2023-03-26T12:06:34.459Z,61.22
2023-03-26T12:16:36.719Z,61.70
2023-03-26T12:26:46.474Z,59.12
2023-03-26T12:36:51.385Z,61.16
2023-03-26T12:47:58.789Z,57.55
2023-03-26T12:57:38.955Z,60.27
2023-03-26T13:07:51.807Z,56.38
2023-03-26T13:18:00.268Z,55.57
2023-03-26T13:28:19.987Z,57.12
2023-03-26T13:38:43.483Z,55.21
2023-03-26T13:49:13.756Z,55.36
2023-03-26T13:59:20.862Z,55.06
2023-03-26T14:09:32.068Z,57.61
2023-03-26T14:19:37.473Z,58.06
2023-03-26T14:29:56.746Z,56.59
2023-03-26T14:40:48.667Z,58.14
2023-03-26T14:50:55.974Z,56.26
2023-03-26T15:01:27.131Z,56.06
2023-03-26T15:11:51.937Z,59.87
2023-03-26T15:22:32.616Z,59.52
2023-03-26T15:32:57.185Z,60.62
2023-03-26T15:43:11.941Z,60.14
2023-03-26T15:53:24.651Z,61.32
2023-03-26T16:03:49.860Z,61.83
2023-03-26T16:14:23.343Z,61.81
2023-03-26T16:24:38.829Z,62.16
2023-03-26T16:34:58.178Z,63.78
2023-03-26T16:45:14.004Z,64.12
2023-03-26T16:55:22.010Z,64.29
2023-03-26T17:05:34.690Z,61.63
2023-03-26T17:15:53.648Z,60.68
2023-03-26T17:26:17.693Z,60.01
2023-03-26T17:36:36.346Z,59.52
2023-03-26T17:46:43.009Z,57.38
2023-03-26T17:56:46.171Z,57.38
2023-03-26T18:06:59.456Z,55.41
2023-03-26T18:17:02.071Z,55.50
2023-03-26T18:27:12.520Z,56.69
2023-03-26T18:37:24.757Z,54.26
2023-03-26T18:47:27.522Z,54.33
2023-03-26T18:57:29.982Z,51.86
2023-03-26T19:07:32.259Z,53.34
2023-03-26T19:17:39.884Z,50.26
2023-03-26T19:27:42.514Z,49.88
2023-03-26T19:37:54.136Z,49.34
2023-03-26T19:48:11.739Z,49.14
2023-03-26T19:58:30.721Z,48.11
2023-03-26T20:08:32.912Z,48.86
2023-03-26T20:18:35.301Z,49.20
2023-03-26T20:28:47.279Z,47.73
2023-03-26T20:38:51.214Z,46.62
2023-03-26T20:48:54.920Z,49.37
2023-03-26T21:09:04.518Z,46.27
2023-03-26T21:19:06.820Z,44.51
2023-03-26T21:29:09.437Z,46.74
2023-03-26T21:39:11.844Z,45.99
2023-03-26T21:49:16.330Z,49.00
2023-03-26T21:59:26.940Z,46.24
2023-03-26T22:09:36.410Z,46.19
2023-03-26T22:19:38.828Z,45.90
2023-03-26T22:29:40.982Z,48.55
2023-03-26T22:39:43.364Z,46.10
2023-03-26T22:49:45.482Z,47.55
2023-03-26T22:59:47.736Z,48.26
2023-03-26T23:09:49.874Z,49.83
2023-03-26T23:19:52.159Z,49.68
2023-03-26T23:29:55.393Z,46.05
2023-03-26T23:39:58.928Z,45.61
2023-03-26T23:50:04.444Z,47.84
